sensor_id;sensor_type;location;lat;lon;timestamp;temperature;humidity
12819;DHT22;6474;53.474;9.894;2024-03-08T00:00:14;2.20;88.40
12819;DHT22;6474;53.474;9.894;2024-03-08T00:02:47;2.20;88.30
12819;DHT22;6474;53.474;9.894;2024-03-08T00:05:17;2.20;88.30
12819;DHT22;6474;53.474;9.894;2024-03-08T00:07:45;2.20;88.30
12819;DHT22;6474;53.474;9.894;2024-03-08T00:10:15;2.10;88.10
12819;DHT22;6474;53.474;9.894;2024-03-08T00:12:44;2.10;88.10
12819;DHT22;6474;53.474;9.894;2024-03-08T00:15:14;2.10;88.00
12819;DHT22;6474;53.474;9.894;2024-03-08T00:17:44;2.00;88.00
12819;DHT22;6474;53.474;9.894;2024-03-08T00:20:12;2.00;88.00
12819;DHT22;6474;53.474;9.894;2024-03-08T00:22:41;2.00;87.90
12819;DHT22;6474;53.474;9.894;2024-03-08T00:25:10;2.00;88.00
12819;DHT22;6474;53.474;9.894;2024-03-08T00:27:40;1.90;87.80
12819;DHT22;6474;53.474;9.894;2024-03-08T00:30:09;1.90;87.80
12819;DHT22;6474;53.474;9.894;2024-03-08T00:32:39;1.80;87.80
12819;DHT22;6474;53.474;9.894;2024-03-08T00:35:08;1.80;87.70
12819;DHT22;6474;53.474;9.894;2024-03-08T00:37:36;1.80;87.70
12819;DHT22;6474;53.474;9.894;2024-03-08T00:40:04;1.70;87.80
12819;DHT22;6474;53.474;9.894;2024-03-08T00:42:36;1.70;87.80
12819;DHT22;6474;53.474;9.894;2024-03-08T00:45:06;1.70;87.80
12819;DHT22;6474;53.474;9.894;2024-03-08T00:47:34;1.60;87.70
12819;DHT22;6474;53.474;9.894;2024-03-08T00:50:03;1.60;87.80
12819;DHT22;6474;53.474;9.894;2024-03-08T00:52:31;1.60;87.80
12819;DHT22;6474;53.474;9.894;2024-03-08T00:55:01;1.50;87.70
12819;DHT22;6474;53.474;9.894;2024-03-08T00:57:29;1.50;87.70
12819;DHT22;6474;53.474;9.894;2024-03-08T00:59:57;1.50;87.70
12819;DHT22;6474;53.474;9.894;2024-03-08T01:02:26;1.50;87.70
12819;DHT22;6474;53.474;9.894;2024-03-08T01:04:54;1.40;87.60
12819;DHT22;6474;53.474;9.894;2024-03-08T01:07:21;1.40;87.60
12819;DHT22;6474;53.474;9.894;2024-03-08T01:09:49;1.40;87.70
12819;DHT22;6474;53.474;9.894;2024-03-08T01:12:17;1.40;87.70
12819;DHT22;6474;53.474;9.894;2024-03-08T01:14:46;1.30;87.50
12819;DHT22;6474;53.474;9.894;2024-03-08T01:17:13;1.30;87.50
12819;DHT22;6474;53.474;9.894;2024-03-08T01:19:42;1.20;87.50
12819;DHT22;6474;53.474;9.894;2024-03-08T01:22:11;1.20;87.60
12819;DHT22;6474;53.474;9.894;2024-03-08T01:24:39;1.20;87.60
12819;DHT22;6474;53.474;9.894;2024-03-08T01:27:07;1.10;87.50
12819;DHT22;6474;53.474;9.894;2024-03-08T01:29:36;1.10;87.60
12819;DHT22;6474;53.474;9.894;2024-03-08T01:32:04;1.10;87.60
12819;DHT22;6474;53.474;9.894;2024-03-08T01:34:33;1.00;87.50
12819;DHT22;6474;53.474;9.894;2024-03-08T01:37:02;1.00;87.50
12819;DHT22;6474;53.474;9.894;2024-03-08T01:39:29;1.00;87.50
12819;DHT22;6474;53.474;9.894;2024-03-08T01:41:59;0.90;87.50
12819;DHT22;6474;53.474;9.894;2024-03-08T01:44:27;0.90;87.60
12819;DHT22;6474;53.474;9.894;2024-03-08T01:46:55;0.80;87.50
12819;DHT22;6474;53.474;9.894;2024-03-08T01:49:24;0.80;87.60
12819;DHT22;6474;53.474;9.894;2024-03-08T01:51:52;0.70;87.60
12819;DHT22;6474;53.474;9.894;2024-03-08T01:54:24;0.60;87.60
12819;DHT22;6474;53.474;9.894;2024-03-08T01:56:52;0.60;87.60
12819;DHT22;6474;53.474;9.894;2024-03-08T01:59:21;0.60;87.70
12819;DHT22;6474;53.474;9.894;2024-03-08T02:01:49;0.50;87.70
12819;DHT22;6474;53.474;9.894;2024-03-08T02:04:18;0.50;87.80
12819;DHT22;6474;53.474;9.894;2024-03-08T02:06:45;0.50;87.90
12819;DHT22;6474;53.474;9.894;2024-03-08T02:09:14;0.40;87.80
12819;DHT22;6474;53.474;9.894;2024-03-08T02:11:45;0.40;87.80
12819;DHT22;6474;53.474;9.894;2024-03-08T02:14:14;0.40;87.70
12819;DHT22;6474;53.474;9.894;2024-03-08T02:16:42;0.40;87.80
12819;DHT22;6474;53.474;9.894;2024-03-08T02:19:13;0.40;87.80
12819;DHT22;6474;53.474;9.894;2024-03-08T02:21:42;0.30;87.60
12819;DHT22;6474;53.474;9.894;2024-03-08T02:24:13;0.30;87.80
12819;DHT22;6474;53.474;9.894;2024-03-08T02:26:41;0.30;87.80
12819;DHT22;6474;53.474;9.894;2024-03-08T02:29:11;0.20;87.70
12819;DHT22;6474;53.474;9.894;2024-03-08T02:31:41;0.20;87.80
12819;DHT22;6474;53.474;9.894;2024-03-08T02:34:09;0.20;87.80
12819;DHT22;6474;53.474;9.894;2024-03-08T02:36:37;0.20;87.80
12819;DHT22;6474;53.474;9.894;2024-03-08T02:39:06;0.20;87.80
12819;DHT22;6474;53.474;9.894;2024-03-08T02:41:37;0.20;87.70
12819;DHT22;6474;53.474;9.894;2024-03-08T02:44:04;0.20;87.60
12819;DHT22;6474;53.474;9.894;2024-03-08T02:46:33;0.20;87.60
12819;DHT22;6474;53.474;9.894;2024-03-08T02:49:02;0.20;87.60
12819;DHT22;6474;53.474;9.894;2024-03-08T02:51:30;0.20;87.60
12819;DHT22;6474;53.474;9.894;2024-03-08T02:53:58;0.20;87.50
12819;DHT22;6474;53.474;9.894;2024-03-08T02:56:27;0.20;87.40
12819;DHT22;6474;53.474;9.894;2024-03-08T02:58:55;0.20;87.40
12819;DHT22;6474;53.474;9.894;2024-03-08T03:01:23;0.20;87.40
12819;DHT22;6474;53.474;9.894;2024-03-08T03:03:51;0.20;87.40
12819;DHT22;6474;53.474;9.894;2024-03-08T03:06:20;0.20;87.40
12819;DHT22;6474;53.474;9.894;2024-03-08T03:08:48;0.20;87.50
12819;DHT22;6474;53.474;9.894;2024-03-08T03:11:18;0.20;87.50
12819;DHT22;6474;53.474;9.894;2024-03-08T03:13:47;0.20;87.60
12819;DHT22;6474;53.474;9.894;2024-03-08T03:16:17;0.20;88.30
12819;DHT22;6474;53.474;9.894;2024-03-08T03:18:47;0.20;87.50
12819;DHT22;6474;53.474;9.894;2024-03-08T03:21:15;0.20;87.50
12819;DHT22;6474;53.474;9.894;2024-03-08T03:23:44;0.10;87.30
12819;DHT22;6474;53.474;9.894;2024-03-08T03:26:12;0.10;87.30
12819;DHT22;6474;53.474;9.894;2024-03-08T03:28:39;0.10;87.30
12819;DHT22;6474;53.474;9.894;2024-03-08T03:31:09;0.10;87.20
12819;DHT22;6474;53.474;9.894;2024-03-08T03:33:40;0.00;87.20
12819;DHT22;6474;53.474;9.894;2024-03-08T03:36:09;0.00;87.30
12819;DHT22;6474;53.474;9.894;2024-03-08T03:38:37;0.00;87.30
12819;DHT22;6474;53.474;9.894;2024-03-08T03:41:05;0.00;87.30
12819;DHT22;6474;53.474;9.894;2024-03-08T03:43:37;0.00;87.30
12819;DHT22;6474;53.474;9.894;2024-03-08T03:46:06;0.00;87.30
12819;DHT22;6474;53.474;9.894;2024-03-08T03:48:35;-0.10;87.30
12819;DHT22;6474;53.474;9.894;2024-03-08T03:51:04;-0.10;87.20
12819;DHT22;6474;53.474;9.894;2024-03-08T03:53:32;-0.10;87.30
12819;DHT22;6474;53.474;9.894;2024-03-08T03:55:59;-0.10;87.30
12819;DHT22;6474;53.474;9.894;2024-03-08T03:58:27;-0.20;87.30
12819;DHT22;6474;53.474;9.894;2024-03-08T04:00:55;-0.20;87.40
12819;DHT22;6474;53.474;9.894;2024-03-08T04:03:23;-0.20;87.40
12819;DHT22;6474;53.474;9.894;2024-03-08T04:05:52;-0.20;87.40
12819;DHT22;6474;53.474;9.894;2024-03-08T04:08:20;-0.30;87.30
12819;DHT22;6474;53.474;9.894;2024-03-08T04:10:50;-0.30;87.30
12819;DHT22;6474;53.474;9.894;2024-03-08T04:13:17;-0.30;87.30
12819;DHT22;6474;53.474;9.894;2024-03-08T04:15:47;-0.30;87.30
12819;DHT22;6474;53.474;9.894;2024-03-08T04:18:16;-0.30;87.30
12819;DHT22;6474;53.474;9.894;2024-03-08T04:20:45;-0.30;87.30
12819;DHT22;6474;53.474;9.894;2024-03-08T04:23:14;-0.30;87.30
12819;DHT22;6474;53.474;9.894;2024-03-08T04:25:42;-0.30;87.30
12819;DHT22;6474;53.474;9.894;2024-03-08T04:28:10;-0.30;87.30
12819;DHT22;6474;53.474;9.894;2024-03-08T04:30:39;-0.30;87.30
12819;DHT22;6474;53.474;9.894;2024-03-08T04:33:07;-0.30;87.40
12819;DHT22;6474;53.474;9.894;2024-03-08T04:35:35;-0.30;87.40
12819;DHT22;6474;53.474;9.894;2024-03-08T04:38:03;-0.30;87.40
12819;DHT22;6474;53.474;9.894;2024-03-08T04:40:33;-0.20;87.60
12819;DHT22;6474;53.474;9.894;2024-03-08T04:43:01;-0.20;87.60
12819;DHT22;6474;53.474;9.894;2024-03-08T04:45:30;-0.30;87.50
12819;DHT22;6474;53.474;9.894;2024-03-08T04:47:57;-0.20;87.70
12819;DHT22;6474;53.474;9.894;2024-03-08T04:50:25;-0.20;87.70
12819;DHT22;6474;53.474;9.894;2024-03-08T04:52:56;-0.20;87.70
12819;DHT22;6474;53.474;9.894;2024-03-08T04:55:23;-0.20;87.60
12819;DHT22;6474;53.474;9.894;2024-03-08T04:57:53;-0.10;87.70
12819;DHT22;6474;53.474;9.894;2024-03-08T05:00:20;-0.10;87.70
12819;DHT22;6474;53.474;9.894;2024-03-08T05:02:48;-0.10;87.60
12819;DHT22;6474;53.474;9.894;2024-03-08T05:05:20;-0.10;87.60
12819;DHT22;6474;53.474;9.894;2024-03-08T05:07:49;-0.10;87.60
12819;DHT22;6474;53.474;9.894;2024-03-08T05:10:17;-0.10;87.60
12819;DHT22;6474;53.474;9.894;2024-03-08T05:12:45;-0.10;87.60
12819;DHT22;6474;53.474;9.894;2024-03-08T05:15:14;-0.10;87.60
12819;DHT22;6474;53.474;9.894;2024-03-08T05:17:42;-0.10;87.60
12819;DHT22;6474;53.474;9.894;2024-03-08T05:20:10;-0.10;87.60
12819;DHT22;6474;53.474;9.894;2024-03-08T05:22:39;-0.10;87.60
12819;DHT22;6474;53.474;9.894;2024-03-08T05:25:08;-0.10;87.50
12819;DHT22;6474;53.474;9.894;2024-03-08T05:27:37;-0.10;87.50
12819;DHT22;6474;53.474;9.894;2024-03-08T05:30:05;-0.10;87.50
12819;DHT22;6474;53.474;9.894;2024-03-08T05:32:35;-0.10;87.50
12819;DHT22;6474;53.474;9.894;2024-03-08T05:35:04;-0.10;87.50
12819;DHT22;6474;53.474;9.894;2024-03-08T05:37:34;-0.10;87.60
12819;DHT22;6474;53.474;9.894;2024-03-08T05:40:02;-0.10;87.60
12819;DHT22;6474;53.474;9.894;2024-03-08T05:42:41;-0.10;87.60
12819;DHT22;6474;53.474;9.894;2024-03-08T05:45:09;-0.10;87.60
12819;DHT22;6474;53.474;9.894;2024-03-08T05:47:40;-0.10;87.60
12819;DHT22;6474;53.474;9.894;2024-03-08T05:50:09;-0.10;87.60
12819;DHT22;6474;53.474;9.894;2024-03-08T05:52:38;-0.10;87.60
12819;DHT22;6474;53.474;9.894;2024-03-08T05:55:07;-0.10;87.60
12819;DHT22;6474;53.474;9.894;2024-03-08T05:57:36;-0.10;87.60
12819;DHT22;6474;53.474;9.894;2024-03-08T06:00:07;-0.10;87.60
12819;DHT22;6474;53.474;9.894;2024-03-08T06:02:35;-0.10;88.30
12819;DHT22;6474;53.474;9.894;2024-03-08T06:05:10;-0.10;87.50
12819;DHT22;6474;53.474;9.894;2024-03-08T06:07:38;-0.10;87.60
12819;DHT22;6474;53.474;9.894;2024-03-08T06:10:08;-0.10;87.60
12819;DHT22;6474;53.474;9.894;2024-03-08T06:12:37;-0.10;87.60
12819;DHT22;6474;53.474;9.894;2024-03-08T06:15:08;-0.10;87.60
12819;DHT22;6474;53.474;9.894;2024-03-08T06:17:37;-0.10;87.60
12819;DHT22;6474;53.474;9.894;2024-03-08T06:20:06;-0.10;87.50
12819;DHT22;6474;53.474;9.894;2024-03-08T06:22:38;0.00;87.70
12819;DHT22;6474;53.474;9.894;2024-03-08T06:25:07;0.00;87.70
12819;DHT22;6474;53.474;9.894;2024-03-08T06:27:36;0.00;87.70
12819;DHT22;6474;53.474;9.894;2024-03-08T06:30:05;0.00;87.70
12819;DHT22;6474;53.474;9.894;2024-03-08T06:32:36;0.10;87.80
12819;DHT22;6474;53.474;9.894;2024-03-08T06:35:05;0.10;87.80
12819;DHT22;6474;53.474;9.894;2024-03-08T06:37:33;0.10;87.70
12819;DHT22;6474;53.474;9.894;2024-03-08T06:40:03;0.20;87.80
12819;DHT22;6474;53.474;9.894;2024-03-08T06:42:31;0.20;87.80
12819;DHT22;6474;53.474;9.894;2024-03-08T06:45:01;0.30;87.90
12819;DHT22;6474;53.474;9.894;2024-03-08T06:47:32;0.30;87.90
12819;DHT22;6474;53.474;9.894;2024-03-08T06:50:00;0.30;87.80
12819;DHT22;6474;53.474;9.894;2024-03-08T06:52:28;0.40;87.80
12819;DHT22;6474;53.474;9.894;2024-03-08T06:54:56;0.40;87.80
12819;DHT22;6474;53.474;9.894;2024-03-08T06:57:25;0.50;87.90
12819;DHT22;6474;53.474;9.894;2024-03-08T06:59:53;0.50;87.80
12819;DHT22;6474;53.474;9.894;2024-03-08T07:02:21;0.50;87.80
12819;DHT22;6474;53.474;9.894;2024-03-08T07:04:51;0.60;87.80
12819;DHT22;6474;53.474;9.894;2024-03-08T07:07:21;0.60;87.80
12819;DHT22;6474;53.474;9.894;2024-03-08T07:09:49;0.70;87.90
12819;DHT22;6474;53.474;9.894;2024-03-08T07:12:17;0.70;87.80
12819;DHT22;6474;53.474;9.894;2024-03-08T07:14:48;0.80;87.90
12819;DHT22;6474;53.474;9.894;2024-03-08T07:17:16;0.80;87.80
12819;DHT22;6474;53.474;9.894;2024-03-08T07:19:44;0.90;87.90
12819;DHT22;6474;53.474;9.894;2024-03-08T07:22:15;0.90;87.90
12819;DHT22;6474;53.474;9.894;2024-03-08T07:24:43;1.00;87.90
12819;DHT22;6474;53.474;9.894;2024-03-08T07:27:30;1.00;87.90
12819;DHT22;6474;53.474;9.894;2024-03-08T07:30:02;1.10;87.90
12819;DHT22;6474;53.474;9.894;2024-03-08T07:32:34;1.10;87.80
12819;DHT22;6474;53.474;9.894;2024-03-08T07:35:02;1.20;87.90
12819;DHT22;6474;53.474;9.894;2024-03-08T07:37:31;1.20;87.90
12819;DHT22;6474;53.474;9.894;2024-03-08T07:39:59;1.20;87.90
12819;DHT22;6474;53.474;9.894;2024-03-08T07:42:27;1.30;88.10
12819;DHT22;6474;53.474;9.894;2024-03-08T07:44:55;1.30;88.10
12819;DHT22;6474;53.474;9.894;2024-03-08T07:47:24;1.40;88.10
12819;DHT22;6474;53.474;9.894;2024-03-08T07:49:53;1.40;88.10
12819;DHT22;6474;53.474;9.894;2024-03-08T07:52:21;1.50;88.20
12819;DHT22;6474;53.474;9.894;2024-03-08T07:54:50;1.50;88.10
12819;DHT22;6474;53.474;9.894;2024-03-08T07:57:18;1.50;88.10
12819;DHT22;6474;53.474;9.894;2024-03-08T07:59:47;1.60;88.20
12819;DHT22;6474;53.474;9.894;2024-03-08T08:02:15;1.70;88.30
12819;DHT22;6474;53.474;9.894;2024-03-08T08:04:44;1.70;88.30
12819;DHT22;6474;53.474;9.894;2024-03-08T08:07:13;1.80;88.30
12819;DHT22;6474;53.474;9.894;2024-03-08T08:09:41;1.80;88.30
12819;DHT22;6474;53.474;9.894;2024-03-08T08:12:09;1.90;88.30
12819;DHT22;6474;53.474;9.894;2024-03-08T08:14:38;1.90;88.30
12819;DHT22;6474;53.474;9.894;2024-03-08T08:17:07;2.00;88.40
12819;DHT22;6474;53.474;9.894;2024-03-08T08:19:36;2.00;88.40
12819;DHT22;6474;53.474;9.894;2024-03-08T08:22:06;2.10;88.50
12819;DHT22;6474;53.474;9.894;2024-03-08T08:24:35;2.20;88.60
12819;DHT22;6474;53.474;9.894;2024-03-08T08:27:04;2.20;88.50
12819;DHT22;6474;53.474;9.894;2024-03-08T08:29:32;2.30;88.60
12819;DHT22;6474;53.474;9.894;2024-03-08T08:31:59;2.30;88.60
12819;DHT22;6474;53.474;9.894;2024-03-08T08:34:29;2.40;88.70
12819;DHT22;6474;53.474;9.894;2024-03-08T08:36:58;2.40;88.60
12819;DHT22;6474;53.474;9.894;2024-03-08T08:39:27;2.50;88.70
12819;DHT22;6474;53.474;9.894;2024-03-08T08:41:55;2.50;88.80
12819;DHT22;6474;53.474;9.894;2024-03-08T08:44:23;2.60;88.80
12819;DHT22;6474;53.474;9.894;2024-03-08T08:46:52;2.60;88.80
12819;DHT22;6474;53.474;9.894;2024-03-08T08:49:28;2.70;88.90
12819;DHT22;6474;53.474;9.894;2024-03-08T08:51:57;2.70;88.90
12819;DHT22;6474;53.474;9.894;2024-03-08T08:54:38;2.80;89.00
12819;DHT22;6474;53.474;9.894;2024-03-08T08:57:06;2.80;89.00
12819;DHT22;6474;53.474;9.894;2024-03-08T08:59:34;2.90;89.00
12819;DHT22;6474;53.474;9.894;2024-03-08T09:02:03;3.00;89.20
12819;DHT22;6474;53.474;9.894;2024-03-08T09:04:31;3.00;89.30
12819;DHT22;6474;53.474;9.894;2024-03-08T09:07:00;3.10;89.40
12819;DHT22;6474;53.474;9.894;2024-03-08T09:09:28;3.10;89.30
12819;DHT22;6474;53.474;9.894;2024-03-08T09:11:57;3.20;89.50
12819;DHT22;6474;53.474;9.894;2024-03-08T09:14:26;3.30;89.60
12819;DHT22;6474;53.474;9.894;2024-03-08T09:16:53;3.30;89.60
12819;DHT22;6474;53.474;9.894;2024-03-08T09:19:21;3.40;89.70
12819;DHT22;6474;53.474;9.894;2024-03-08T09:21:52;3.50;89.80
12819;DHT22;6474;53.474;9.894;2024-03-08T09:24:20;3.50;89.70
12819;DHT22;6474;53.474;9.894;2024-03-08T09:26:48;3.60;89.70
12819;DHT22;6474;53.474;9.894;2024-03-08T09:29:18;3.70;89.70
12819;DHT22;6474;53.474;9.894;2024-03-08T09:31:45;3.70;89.70
12819;DHT22;6474;53.474;9.894;2024-03-08T09:34:13;3.80;89.90
12819;DHT22;6474;53.474;9.894;2024-03-08T09:36:50;3.80;89.90
12819;DHT22;6474;53.474;9.894;2024-03-08T09:39:19;3.90;89.90
12819;DHT22;6474;53.474;9.894;2024-03-08T09:41:50;3.90;89.90
12819;DHT22;6474;53.474;9.894;2024-03-08T09:44:19;4.00;90.30
12819;DHT22;6474;53.474;9.894;2024-03-08T09:46:47;4.10;90.00
12819;DHT22;6474;53.474;9.894;2024-03-08T09:49:15;4.10;90.00
12819;DHT22;6474;53.474;9.894;2024-03-08T09:51:44;4.20;90.00
12819;DHT22;6474;53.474;9.894;2024-03-08T09:54:13;4.30;90.10
12819;DHT22;6474;53.474;9.894;2024-03-08T09:56:51;4.40;90.10
12819;DHT22;6474;53.474;9.894;2024-03-08T09:59:23;4.40;90.10
12819;DHT22;6474;53.474;9.894;2024-03-08T10:02:13;4.50;90.10
12819;DHT22;6474;53.474;9.894;2024-03-08T10:04:42;4.50;90.00
12819;DHT22;6474;53.474;9.894;2024-03-08T10:07:13;4.60;90.00
12819;DHT22;6474;53.474;9.894;2024-03-08T10:09:41;4.60;90.00
12819;DHT22;6474;53.474;9.894;2024-03-08T10:12:17;4.70;90.10
12819;DHT22;6474;53.474;9.894;2024-03-08T10:14:47;4.70;90.00
12819;DHT22;6474;53.474;9.894;2024-03-08T10:17:15;4.80;90.10
12819;DHT22;6474;53.474;9.894;2024-03-08T10:19:49;4.90;90.10
12819;DHT22;6474;53.474;9.894;2024-03-08T10:22:18;4.90;90.10
12819;DHT22;6474;53.474;9.894;2024-03-08T10:24:47;5.00;90.10
12819;DHT22;6474;53.474;9.894;2024-03-08T10:27:16;5.00;90.10
12819;DHT22;6474;53.474;9.894;2024-03-08T10:29:48;5.10;90.20
12819;DHT22;6474;53.474;9.894;2024-03-08T10:32:18;5.20;90.20
12819;DHT22;6474;53.474;9.894;2024-03-08T10:34:47;5.20;90.10
12819;DHT22;6474;53.474;9.894;2024-03-08T10:37:21;5.30;90.10
12819;DHT22;6474;53.474;9.894;2024-03-08T10:39:59;5.40;90.10
12819;DHT22;6474;53.474;9.894;2024-03-08T10:42:30;5.40;90.10
12819;DHT22;6474;53.474;9.894;2024-03-08T10:45:11;5.50;90.10
12819;DHT22;6474;53.474;9.894;2024-03-08T10:47:42;5.50;90.10
12819;DHT22;6474;53.474;9.894;2024-03-08T10:50:17;5.60;90.10
12819;DHT22;6474;53.474;9.894;2024-03-08T10:52:49;5.60;90.00
12819;DHT22;6474;53.474;9.894;2024-03-08T10:55:18;5.70;90.30
12819;DHT22;6474;53.474;9.894;2024-03-08T10:57:47;5.70;90.00
12819;DHT22;6474;53.474;9.894;2024-03-08T11:00:17;5.80;90.00
12819;DHT22;6474;53.474;9.894;2024-03-08T11:02:53;5.90;89.90
12819;DHT22;6474;53.474;9.894;2024-03-08T11:05:32;5.90;89.50
12819;DHT22;6474;53.474;9.894;2024-03-08T11:08:02;6.00;89.50
12819;DHT22;6474;53.474;9.894;2024-03-08T11:10:31;6.00;89.50
12819;DHT22;6474;53.474;9.894;2024-03-08T11:12:59;6.10;89.60
12819;DHT22;6474;53.474;9.894;2024-03-08T11:15:30;6.10;89.70
12819;DHT22;6474;53.474;9.894;2024-03-08T11:17:58;6.20;89.70
12819;DHT22;6474;53.474;9.894;2024-03-08T11:20:27;6.20;89.70
12819;DHT22;6474;53.474;9.894;2024-03-08T11:23:00;6.30;89.70
12819;DHT22;6474;53.474;9.894;2024-03-08T11:25:33;6.30;89.50
12819;DHT22;6474;53.474;9.894;2024-03-08T11:28:12;6.40;89.60
12819;DHT22;6474;53.474;9.894;2024-03-08T11:31:23;6.40;89.40
12819;DHT22;6474;53.474;9.894;2024-03-08T11:33:52;6.50;89.30
12819;DHT22;6474;53.474;9.894;2024-03-08T11:36:22;6.50;89.20
12819;DHT22;6474;53.474;9.894;2024-03-08T11:38:51;6.60;89.30
12819;DHT22;6474;53.474;9.894;2024-03-08T11:41:22;6.60;89.30
12819;DHT22;6474;53.474;9.894;2024-03-08T11:44:01;6.60;89.90
12819;DHT22;6474;53.474;9.894;2024-03-08T11:46:33;6.60;89.20
12819;DHT22;6474;53.474;9.894;2024-03-08T11:49:01;6.60;89.20
12819;DHT22;6474;53.474;9.894;2024-03-08T11:51:30;6.70;89.30
12819;DHT22;6474;53.474;9.894;2024-03-08T11:53:59;6.60;89.20
12819;DHT22;6474;53.474;9.894;2024-03-08T11:56:27;6.60;89.20
12819;DHT22;6474;53.474;9.894;2024-03-08T11:58:56;6.70;89.30
12819;DHT22;6474;53.474;9.894;2024-03-08T12:01:25;6.70;89.30
12819;DHT22;6474;53.474;9.894;2024-03-08T12:03:56;6.70;89.30
12819;DHT22;6474;53.474;9.894;2024-03-08T12:06:26;6.70;89.30
12819;DHT22;6474;53.474;9.894;2024-03-08T12:08:54;6.70;89.30
12819;DHT22;6474;53.474;9.894;2024-03-08T12:11:22;6.80;89.40
12819;DHT22;6474;53.474;9.894;2024-03-08T12:13:52;6.80;89.40
12819;DHT22;6474;53.474;9.894;2024-03-08T12:16:20;6.80;89.30
12819;DHT22;6474;53.474;9.894;2024-03-08T12:18:50;6.90;89.40
12819;DHT22;6474;53.474;9.894;2024-03-08T12:21:21;6.90;89.40
12819;DHT22;6474;53.474;9.894;2024-03-08T12:24:03;6.90;89.20
12819;DHT22;6474;53.474;9.894;2024-03-08T12:26:31;7.00;89.30
12819;DHT22;6474;53.474;9.894;2024-03-08T12:29:15;7.00;89.30
12819;DHT22;6474;53.474;9.894;2024-03-08T12:31:43;7.00;89.50
12819;DHT22;6474;53.474;9.894;2024-03-08T12:34:11;7.00;89.40
12819;DHT22;6474;53.474;9.894;2024-03-08T12:36:46;7.10;89.60
12819;DHT22;6474;53.474;9.894;2024-03-08T12:39:16;7.10;89.60
12819;DHT22;6474;53.474;9.894;2024-03-08T12:41:49;7.20;89.50
12819;DHT22;6474;53.474;9.894;2024-03-08T12:44:18;7.20;89.50
12819;DHT22;6474;53.474;9.894;2024-03-08T12:46:49;7.30;89.50
12819;DHT22;6474;53.474;9.894;2024-03-08T12:49:20;7.30;89.40
12819;DHT22;6474;53.474;9.894;2024-03-08T12:51:50;7.40;89.40
12819;DHT22;6474;53.474;9.894;2024-03-08T12:54:20;7.40;89.20
12819;DHT22;6474;53.474;9.894;2024-03-08T12:56:50;7.40;89.10
12819;DHT22;6474;53.474;9.894;2024-03-08T12:59:20;7.40;89.00
12819;DHT22;6474;53.474;9.894;2024-03-08T13:01:49;7.40;89.00
12819;DHT22;6474;53.474;9.894;2024-03-08T13:04:18;7.50;89.10
12819;DHT22;6474;53.474;9.894;2024-03-08T13:06:49;7.50;89.20
12819;DHT22;6474;53.474;9.894;2024-03-08T13:09:21;7.50;89.20
12819;DHT22;6474;53.474;9.894;2024-03-08T13:11:50;7.50;89.10
12819;DHT22;6474;53.474;9.894;2024-03-08T13:14:20;7.50;89.10
12819;DHT22;6474;53.474;9.894;2024-03-08T13:16:48;7.50;89.10
12819;DHT22;6474;53.474;9.894;2024-03-08T13:19:18;7.50;89.10
12819;DHT22;6474;53.474;9.894;2024-03-08T13:21:50;7.60;89.20
12819;DHT22;6474;53.474;9.894;2024-03-08T13:24:18;7.60;89.20
12819;DHT22;6474;53.474;9.894;2024-03-08T13:26:47;7.60;89.10
12819;DHT22;6474;53.474;9.894;2024-03-08T13:29:15;7.70;89.10
12819;DHT22;6474;53.474;9.894;2024-03-08T13:31:44;7.70;89.10
12819;DHT22;6474;53.474;9.894;2024-03-08T13:34:13;7.70;88.80
12819;DHT22;6474;53.474;9.894;2024-03-08T13:36:42;7.70;88.60
12819;DHT22;6474;53.474;9.894;2024-03-08T13:39:13;7.70;88.60
12819;DHT22;6474;53.474;9.894;2024-03-08T13:41:42;7.70;88.60
12819;DHT22;6474;53.474;9.894;2024-03-08T13:44:11;7.70;88.70
12819;DHT22;6474;53.474;9.894;2024-03-08T13:46:39;7.80;88.80
12819;DHT22;6474;53.474;9.894;2024-03-08T13:49:08;7.80;88.80
12819;DHT22;6474;53.474;9.894;2024-03-08T13:51:37;7.80;88.80
12819;DHT22;6474;53.474;9.894;2024-03-08T13:54:05;7.80;88.80
12819;DHT22;6474;53.474;9.894;2024-03-08T13:56:35;7.90;88.90
12819;DHT22;6474;53.474;9.894;2024-03-08T13:59:03;7.90;88.80
12819;DHT22;6474;53.474;9.894;2024-03-08T14:01:31;7.90;88.80
12819;DHT22;6474;53.474;9.894;2024-03-08T14:04:02;7.90;88.70
12819;DHT22;6474;53.474;9.894;2024-03-08T14:06:31;7.90;88.70
12819;DHT22;6474;53.474;9.894;2024-03-08T14:08:59;8.00;88.60
12819;DHT22;6474;53.474;9.894;2024-03-08T14:11:28;8.00;88.60
12819;DHT22;6474;53.474;9.894;2024-03-08T14:13:57;8.00;88.50
12819;DHT22;6474;53.474;9.894;2024-03-08T14:16:25;8.00;88.50
12819;DHT22;6474;53.474;9.894;2024-03-08T14:18:53;8.00;88.50
12819;DHT22;6474;53.474;9.894;2024-03-08T14:21:21;8.00;88.40
12819;DHT22;6474;53.474;9.894;2024-03-08T14:23:49;8.00;88.30
12819;DHT22;6474;53.474;9.894;2024-03-08T14:26:18;8.00;88.10
12819;DHT22;6474;53.474;9.894;2024-03-08T14:28:47;8.00;88.10
12819;DHT22;6474;53.474;9.894;2024-03-08T14:31:19;8.00;88.10
12819;DHT22;6474;53.474;9.894;2024-03-08T14:33:50;8.00;88.20
12819;DHT22;6474;53.474;9.894;2024-03-08T14:36:19;8.00;88.10
12819;DHT22;6474;53.474;9.894;2024-03-08T14:38:47;8.00;88.10
12819;DHT22;6474;53.474;9.894;2024-03-08T14:41:15;8.00;88.10
12819;DHT22;6474;53.474;9.894;2024-03-08T14:43:43;8.00;88.20
12819;DHT22;6474;53.474;9.894;2024-03-08T14:46:12;8.00;88.20
12819;DHT22;6474;53.474;9.894;2024-03-08T14:48:45;8.00;88.20
12819;DHT22;6474;53.474;9.894;2024-03-08T14:51:17;8.00;88.60
12819;DHT22;6474;53.474;9.894;2024-03-08T14:53:48;8.00;88.10
12819;DHT22;6474;53.474;9.894;2024-03-08T14:56:16;8.00;88.00
12819;DHT22;6474;53.474;9.894;2024-03-08T14:58:44;8.00;87.80
12819;DHT22;6474;53.474;9.894;2024-03-08T15:01:13;7.90;87.70
12819;DHT22;6474;53.474;9.894;2024-03-08T15:03:41;7.90;87.50
12819;DHT22;6474;53.474;9.894;2024-03-08T15:06:11;7.90;87.40
12819;DHT22;6474;53.474;9.894;2024-03-08T15:08:39;7.90;87.30
12819;DHT22;6474;53.474;9.894;2024-03-08T15:11:07;7.90;87.40
12819;DHT22;6474;53.474;9.894;2024-03-08T15:13:35;7.80;87.30
12819;DHT22;6474;53.474;9.894;2024-03-08T15:16:08;7.80;87.40
12819;DHT22;6474;53.474;9.894;2024-03-08T15:18:42;7.80;87.30
12819;DHT22;6474;53.474;9.894;2024-03-08T15:21:19;7.70;87.00
12819;DHT22;6474;53.474;9.894;2024-03-08T15:23:47;7.70;87.20
12819;DHT22;6474;53.474;9.894;2024-03-08T15:26:19;7.70;87.30
12819;DHT22;6474;53.474;9.894;2024-03-08T15:28:46;7.60;87.10
12819;DHT22;6474;53.474;9.894;2024-03-08T15:31:19;7.60;87.20
12819;DHT22;6474;53.474;9.894;2024-03-08T15:33:50;7.60;87.20
12819;DHT22;6474;53.474;9.894;2024-03-08T15:36:28;7.60;87.20
12819;DHT22;6474;53.474;9.894;2024-03-08T15:38:57;7.50;87.20
12819;DHT22;6474;53.474;9.894;2024-03-08T15:41:25;7.50;87.10
12819;DHT22;6474;53.474;9.894;2024-03-08T15:43:54;7.50;87.10
12819;DHT22;6474;53.474;9.894;2024-03-08T15:46:22;7.50;87.80
12819;DHT22;6474;53.474;9.894;2024-03-08T15:48:51;7.40;87.00
12819;DHT22;6474;53.474;9.894;2024-03-08T15:51:19;7.50;87.20
12819;DHT22;6474;53.474;9.894;2024-03-08T15:53:48;7.40;87.20
12819;DHT22;6474;53.474;9.894;2024-03-08T15:56:20;7.40;87.10
12819;DHT22;6474;53.474;9.894;2024-03-08T15:58:49;7.40;87.00
12819;DHT22;6474;53.474;9.894;2024-03-08T16:01:18;7.40;86.90
12819;DHT22;6474;53.474;9.894;2024-03-08T16:03:47;7.40;86.90
12819;DHT22;6474;53.474;9.894;2024-03-08T16:06:16;7.40;86.90
12819;DHT22;6474;53.474;9.894;2024-03-08T16:08:49;7.30;86.80
12819;DHT22;6474;53.474;9.894;2024-03-08T16:11:17;7.30;86.80
12819;DHT22;6474;53.474;9.894;2024-03-08T16:13:48;7.20;86.70